کابل, افغانستان

05:47 AM AFT on ژوئیه 31, 2014 (GMT +0430)
Kabul (OAKB) Elev 5876 ft | 34.57 °N, 69.21 °E | Change Station

Current weather conditions updated 27 minutes ago

Partly Cloudy
ابرهاى پراكنده
73 °F
Feels Like 73 °F
N
4
باد متغير باد from SSW

Today is forecast to be Cooler than yesterday.

امروز
High -- | Low -- °F
--% Chance of Precip.
دیروز
High -- | Low -- °F
Precip. -- در
5:02 AM 6:56 PM
Waxing Crescent, 15% visible
فشار 29.95 در
ديد 3.7 مايل، ميل (در برابر كيلومتر
ابری Few 5000 ft
قطره شبنم 64 °F
رطوبت 73%
بارش باران 0.00 در
برف عمیق Not available.
مادون قرمز 0 out of 12
Pollen Not available.
تمیزی هوا Not available.
Flu Activity Not available.
METAR OAKB 310050Z 21003KT 6000 FEW050 23/18 Q1014 NOSIG RMK WHT WHT

More Conditions Fewer Conditions

فشار 29.95 در
ديد 3.7 مايل، ميل (در برابر كيلومتر
ابری Few 5000 ft
قطره شبنم 64 °F
رطوبت 73%
بارش باران 0.00 در
برف عمیق Not available.
مادون قرمز 0 out of 12
Pollen Not available.
تمیزی هوا Not available.
Flu Activity Not available.
METAR OAKB 310050Z 21003KT 6000 FEW050 23/18 Q1014 NOSIG RMK WHT WHT

More Conditions Fewer Conditions

10-Day Weather Forecast

Almanac

ستاره شناسی

Jul. 31, 2014 Rise Set
وقت حقیقی 5:02 AM AFT 6:56 PM AFT
تاریک و روشن اجتماعی 4:34 AM AFT 7:23 PM AFT
تاریک روشن دریایی 4:01 AM AFT 7:57 PM AFT
شفق و فلق نجومی 3:25 AM AFT 8:33 PM AFT
ماه 8:52 AM AFT 9:08 PM AFT
میزان روشنایی روز 14h 49m
طول روز
13h 53m
Tomorrow will be 1m 35s shorter.
Waxing Crescent, 15% of the Moon is Illuminated
Jul 30
Waxing Crescent
Aug 3
ربع اول
Aug 10
ماه کامل
Aug 17
ربع آخر
Aug 25
New

Yesterday's Extremes

Country Highs Country Lows

Community

WunderPhotos

Upload Photos

1,739,261 photos uploaded!

Nearby

تمیزی هوا

Not available.

عمق برف

Not available.

Earthquake Activity

شهر Distance Mag. Time & Date
No recent earthquake activity has been reported nearby.
Minimum magnitude displayed is 2.5.

Coastal Water Temperatures

منطقه درجه حرارت
No Stations Reporting

Nearby Weather Stations

There are no personal weather stations in this area.